This is the latest recevied weather packets stored in our database for station/object AD5L. If no packets are shown the sender has not sent any weather packets the latest 10 day(s).
| Time | Temp. | Humidity | Pressure | Rain* | Wind** | Luminosity | Snow |
|---|---|---|---|---|---|---|---|
| 1777482819 | 21.67° C | 94% | 1013.8 hPa | 0 mm | - | - | - |
| 1777482206 | 21.67° C | 95% | 1014 hPa | 0 mm | - | - | - |
| 1777481611 | 22.22° C | 93% | 1014.1 hPa | 0 mm | - | - | - |
| 1777481018 | 25.56° C | 88% | 1014 hPa | 0 mm | - | - | - |
| 1777480406 | 26.11° C | 92% | 1013.3 hPa | 0 mm | - | - | - |
| 1777479811 | 26.11° C | 94% | 1013.2 hPa | 0 mm | - | - | - |
| 1777479216 | 25.56° C | 93% | 1012.8 hPa | 0 mm | - | - | - |
| 1777478602 | 25.56° C | 93% | 1013.9 hPa | 0 mm | - | - | - |
| 1777478005 | 25.56° C | 93% | 1013.5 hPa | 0 mm | - | - | - |
| 1777477413 | 25.56° C | 96% | 1013.6 hPa | 0 mm | - | - | - |
| 1777476820 | 25° C | 96% | 1013.5 hPa | 0 mm | - | - | - |
| 1777476208 | 25° C | 97% | 1013.6 hPa | 0 mm | - | - | - |
| 1777475618 | 25° C | 96% | 1013.7 hPa | 0 mm | - | - | - |
| 1777475010 | 25° C | 96% | 1014 hPa | 0 mm | - | - | - |
| 1777474415 | 25° C | 97% | 1013.7 hPa | 0 mm | - | - | - |
| 1777473804 | 25° C | 96% | 1013.2 hPa | 0 mm | - | - | - |
| 1777473216 | 24.44° C | 97% | 1013.2 hPa | 0 mm | - | - | - |
| 1777472605 | 24.44° C | 97% | 1013.4 hPa | 0 mm | - | - | - |
| 1777472013 | 24.44° C | 97% | 1013.5 hPa | 0 mm | - | - | - |
| 1777471403 | 24.44° C | 96% | 1013.2 hPa | 0 mm | - | - | - |
| 1777470816 | 24.44° C | 96% | 1013.2 hPa | 0 mm | - | - | - |
| 1777470209 | 24.44° C | 96% | 1013.1 hPa | 0 mm | - | - | - |
| 1777469617 | 24.44° C | 95% | 1012.9 hPa | 0 mm | - | - | - |
| 1777469004 | 24.44° C | 95% | 1013.1 hPa | 0 mm | - | - | - |
| 1777468415 | 24.44° C | 95% | 1012.8 hPa | 0 mm | - | - | - |
* Rain latest hour (hover to see other rain measurements)
** Current wind speed in m/s (hover to see current wind gust speed)